createdAt,value
2017-10-15T00:01:58.802Z,6.43
2017-10-15T00:04:25.167Z,6.12
2017-10-15T00:06:51.578Z,5.68
2017-10-15T00:09:18.007Z,5.72
2017-10-15T00:11:45.123Z,5.45
2017-10-15T00:14:11.515Z,6.32
2017-10-15T00:16:37.920Z,5.43
2017-10-15T00:19:04.319Z,6.10
2017-10-15T00:21:30.783Z,5.53
2017-10-15T00:23:57.199Z,6.47
2017-10-15T00:26:23.651Z,5.63
2017-10-15T00:28:50.108Z,5.45
2017-10-15T00:31:16.471Z,4.25
2017-10-15T00:33:43.611Z,5.03
2017-10-15T00:36:09.978Z,5.57
2017-10-15T00:38:36.415Z,4.82
2017-10-15T00:41:02.844Z,5.20
2017-10-15T00:43:29.273Z,5.68
2017-10-15T00:45:55.659Z,5.40
2017-10-15T00:48:22.100Z,5.10
2017-10-15T00:50:48.519Z,5.07
2017-10-15T00:53:14.926Z,5.75
2017-10-15T00:55:41.371Z,5.65
2017-10-15T00:58:08.543Z,5.22
2017-10-15T01:00:35.023Z,5.45
2017-10-15T01:03:01.519Z,5.30
2017-10-15T01:05:27.979Z,4.75
2017-10-15T01:07:55.503Z,5.43
2017-10-15T01:10:22.699Z,4.93
2017-10-15T01:12:49.093Z,4.65
2017-10-15T01:15:15.500Z,5.72
2017-10-15T01:17:41.915Z,4.87
2017-10-15T01:20:08.344Z,4.68
2017-10-15T01:22:34.794Z,5.18
2017-10-15T01:25:02.215Z,5.05
2017-10-15T01:27:28.627Z,4.75
2017-10-15T01:29:56.132Z,5.25
2017-10-15T01:32:23.286Z,4.70
2017-10-15T01:34:49.739Z,4.70
2017-10-15T01:37:16.137Z,5.47
2017-10-15T01:39:42.533Z,4.90
2017-10-15T01:42:08.903Z,4.68
2017-10-15T01:44:36.140Z,4.43
2017-10-15T01:47:02.559Z,4.85
2017-10-15T01:49:29.036Z,5.22
2017-10-15T01:51:55.512Z,4.30
2017-10-15T01:54:22.692Z,4.40
2017-10-15T01:56:50.149Z,5.12
2017-10-15T01:59:18.082Z,5.18
2017-10-15T02:01:44.520Z,4.65
2017-10-15T02:04:10.887Z,5.57
2017-10-15T02:06:38.325Z,4.80
2017-10-15T02:09:05.459Z,5.25
2017-10-15T02:11:32.607Z,5.60
2017-10-15T02:13:59.044Z,5.25
2017-10-15T02:16:25.485Z,5.20
2017-10-15T02:18:51.872Z,5.07
2017-10-15T02:21:18.304Z,5.90
2017-10-15T02:23:44.719Z,5.82
2017-10-15T02:26:11.111Z,5.00
2017-10-15T02:28:37.538Z,4.75
2017-10-15T02:31:03.955Z,5.28
2017-10-15T02:33:30.407Z,4.95
2017-10-15T02:35:56.825Z,4.90
2017-10-15T02:38:23.187Z,4.53
2017-10-15T02:40:49.595Z,4.72
2017-10-15T02:43:16.767Z,5.32
2017-10-15T02:45:43.184Z,4.82
2017-10-15T02:48:09.606Z,5.28
2017-10-15T02:50:36.032Z,5.00
2017-10-15T02:53:02.411Z,4.95
2017-10-15T02:55:28.816Z,5.20
2017-10-15T02:57:55.211Z,5.20
2017-10-15T03:00:21.619Z,4.35
2017-10-15T03:02:47.997Z,4.18
2017-10-15T03:05:14.435Z,4.85
2017-10-15T03:07:40.815Z,4.07
2017-10-15T03:10:07.227Z,4.60
2017-10-15T03:12:33.584Z,4.10
2017-10-15T03:14:59.971Z,4.47
2017-10-15T03:17:26.363Z,4.62
2017-10-15T03:19:53.504Z,4.03
2017-10-15T03:22:20.647Z,3.72
2017-10-15T03:24:47.042Z,4.78
2017-10-15T03:27:13.519Z,5.18
2017-10-15T03:29:39.887Z,4.35
2017-10-15T03:32:07.010Z,4.82
2017-10-15T03:34:34.150Z,4.47
2017-10-15T03:37:02.337Z,5.05
2017-10-15T03:39:28.718Z,4.65
2017-10-15T03:41:55.175Z,4.47
2017-10-15T03:44:21.559Z,5.35
2017-10-15T03:46:47.903Z,4.93
2017-10-15T03:49:14.343Z,4.37
2017-10-15T03:51:40.732Z,4.65
2017-10-15T03:54:07.183Z,4.55
2017-10-15T03:56:33.575Z,4.18
2017-10-15T03:58:59.968Z,4.85
2017-10-15T04:01:27.079Z,5.22
2017-10-15T04:03:53.503Z,5.15
2017-10-15T04:06:19.889Z,4.57
2017-10-15T04:08:47.293Z,5.60
2017-10-15T04:11:13.679Z,4.57
2017-10-15T04:13:40.819Z,4.75
2017-10-15T04:16:07.215Z,5.68
2017-10-15T04:18:34.723Z,4.70
2017-10-15T04:21:01.121Z,5.45
2017-10-15T04:23:27.559Z,5.53
2017-10-15T04:25:53.955Z,4.70
2017-10-15T04:28:20.370Z,5.28
2017-10-15T04:30:46.732Z,5.50
2017-10-15T04:33:13.843Z,4.97
2017-10-15T04:35:40.198Z,4.65
2017-10-15T04:38:07.328Z,6.18
2017-10-15T04:40:33.748Z,5.47
2017-10-15T04:43:00.140Z,6.15
2017-10-15T04:45:26.492Z,5.57
2017-10-15T04:47:52.919Z,5.40
2017-10-15T04:50:19.283Z,5.70
2017-10-15T04:52:46.699Z,5.40
2017-10-15T04:55:13.112Z,4.20
2017-10-15T04:57:39.523Z,5.22
2017-10-15T05:00:05.951Z,5.07
2017-10-15T05:02:32.335Z,5.62
2017-10-15T05:04:59.519Z,6.12
2017-10-15T05:07:25.930Z,5.68
2017-10-15T05:09:52.343Z,5.18
2017-10-15T05:12:18.731Z,5.07
2017-10-15T05:14:45.092Z,5.90
2017-10-15T05:17:11.499Z,4.97
2017-10-15T05:19:37.920Z,5.93
2017-10-15T05:22:04.312Z,5.85
2017-10-15T05:24:30.691Z,5.90
2017-10-15T05:26:57.107Z,5.78
2017-10-15T05:29:24.225Z,7.32
2017-10-15T05:31:51.383Z,8.40
2017-10-15T05:34:17.743Z,7.32
2017-10-15T05:36:44.164Z,8.07
2017-10-15T05:39:10.555Z,7.47
2017-10-15T05:41:36.943Z,7.55
2017-10-15T05:44:04.067Z,7.05
2017-10-15T05:46:30.471Z,7.97
2017-10-15T05:48:56.845Z,7.65
2017-10-15T05:51:23.227Z,7.68
2017-10-15T05:53:49.715Z,9.77
2017-10-15T05:56:16.107Z,8.27
2017-10-15T05:58:43.385Z,8.00
2017-10-15T06:01:10.518Z,8.35
2017-10-15T06:03:36.945Z,8.80
2017-10-15T06:06:04.122Z,9.75
2017-10-15T06:08:30.547Z,9.27
2017-10-15T06:10:56.946Z,8.77
2017-10-15T06:13:23.328Z,7.68
2017-10-15T06:15:50.463Z,8.50
2017-10-15T06:18:16.795Z,8.52
2017-10-15T06:20:43.244Z,9.10
2017-10-15T06:23:09.667Z,8.90
2017-10-15T06:25:36.015Z,9.38
2017-10-15T06:28:02.459Z,8.30
2017-10-15T06:30:28.803Z,10.27
2017-10-15T06:32:55.155Z,10.57
2017-10-15T06:35:21.523Z,9.15
2017-10-15T06:37:47.887Z,10.48
2017-10-15T06:40:15.039Z,11.75
2017-10-15T06:42:42.159Z,12.30
2017-10-15T06:45:08.653Z,12.40
2017-10-15T06:47:35.056Z,12.93
2017-10-15T06:50:01.468Z,16.00
2017-10-15T06:52:27.859Z,15.90
2017-10-15T06:54:54.227Z,14.82
2017-10-15T06:57:20.641Z,16.27
2017-10-15T06:59:47.795Z,16.17
2017-10-15T07:02:14.176Z,15.40
2017-10-15T07:04:40.585Z,15.30
2017-10-15T07:07:06.995Z,16.53
2017-10-15T07:09:33.363Z,13.93
2017-10-15T07:12:00.515Z,14.45
2017-10-15T07:14:26.926Z,16.50
2017-10-15T07:16:54.059Z,15.97
2017-10-15T07:19:21.193Z,16.30
2017-10-15T07:21:47.608Z,16.83
2017-10-15T07:24:14.683Z,19.23
2017-10-15T07:26:41.059Z,13.40
2017-10-15T07:29:07.463Z,15.33
2017-10-15T07:31:34.612Z,13.43
2017-10-15T07:34:01.057Z,15.43
2017-10-15T07:36:27.475Z,14.73
2017-10-15T07:38:53.901Z,13.63
2017-10-15T07:41:20.274Z,12.87
2017-10-15T07:43:46.692Z,11.80
2017-10-15T07:46:13.845Z,10.47
2017-10-15T07:48:40.239Z,9.90
2017-10-15T07:51:07.391Z,11.53
2017-10-15T07:53:33.772Z,11.07
2017-10-15T07:56:00.180Z,11.43
2017-10-15T07:58:26.559Z,10.97
2017-10-15T08:00:52.950Z,11.77
2017-10-15T08:03:20.085Z,10.40
2017-10-15T08:05:46.517Z,11.23
2017-10-15T08:08:12.896Z,10.43
2017-10-15T08:10:40.047Z,11.20
2017-10-15T08:13:06.392Z,9.50
2017-10-15T08:15:32.819Z,9.97
2017-10-15T08:17:59.221Z,9.47
2017-10-15T08:20:25.632Z,9.47
2017-10-15T08:22:52.029Z,9.00
2017-10-15T08:25:18.427Z,11.63
2017-10-15T08:27:45.575Z,9.30
2017-10-15T08:30:11.999Z,11.13
2017-10-15T08:32:38.443Z,9.70
2017-10-15T08:35:04.888Z,8.73
2017-10-15T08:37:31.289Z,10.27
2017-10-15T08:39:57.696Z,10.10
2017-10-15T08:42:24.110Z,9.90
2017-10-15T08:44:50.551Z,11.30
2017-10-15T08:47:17.667Z,11.27
2017-10-15T08:49:44.072Z,14.30
2017-10-15T08:52:10.544Z,13.77
2017-10-15T08:54:37.695Z,18.20
2017-10-15T08:57:04.835Z,21.73
2017-10-15T08:59:31.235Z,20.90
2017-10-15T09:01:58.392Z,22.70
2017-10-15T09:04:24.833Z,26.20
2017-10-15T09:06:51.183Z,24.33
2017-10-15T09:09:17.580Z,23.70
2017-10-15T09:11:43.967Z,24.10
2017-10-15T09:14:10.395Z,24.30
2017-10-15T09:16:36.747Z,22.00
2017-10-15T09:19:03.148Z,27.87
2017-10-15T09:21:29.537Z,24.37
2017-10-15T09:23:56.019Z,28.23
2017-10-15T09:26:23.691Z,29.93
2017-10-15T09:28:50.051Z,26.20
2017-10-15T09:31:16.467Z,29.40
2017-10-15T09:33:42.865Z,30.17
2017-10-15T09:36:09.207Z,37.47
2017-10-15T09:38:35.645Z,32.80
2017-10-15T09:41:02.024Z,35.57
2017-10-15T09:43:28.423Z,32.93
2017-10-15T09:45:54.836Z,36.53
2017-10-15T09:48:21.218Z,37.00
2017-10-15T09:50:48.637Z,35.53
2017-10-15T09:53:15.036Z,34.90
2017-10-15T09:55:41.444Z,31.90
2017-10-15T09:58:07.883Z,33.60
2017-10-15T10:00:34.288Z,34.23
2017-10-15T10:03:00.833Z,33.53
2017-10-15T10:05:27.972Z,33.60
2017-10-15T10:07:55.087Z,36.70
2017-10-15T10:10:21.474Z,35.30
2017-10-15T10:12:47.868Z,36.80
2017-10-15T10:15:14.227Z,36.23
2017-10-15T10:17:40.641Z,38.57
2017-10-15T10:20:07.099Z,36.30
2017-10-15T10:22:34.249Z,33.17
2017-10-15T10:25:00.682Z,34.53
2017-10-15T10:27:27.048Z,31.87
2017-10-15T10:29:53.443Z,34.70
2017-10-15T10:32:19.838Z,32.53
2017-10-15T10:34:46.218Z,32.83
2017-10-15T10:37:14.472Z,30.47
2017-10-15T10:39:40.855Z,29.97
2017-10-15T10:42:07.279Z,26.33
2017-10-15T10:44:33.676Z,24.53
2017-10-15T10:47:00.051Z,27.80
2017-10-15T10:49:27.163Z,24.87
2017-10-15T10:51:54.344Z,27.33
2017-10-15T10:54:20.807Z,25.57
2017-10-15T10:56:47.229Z,23.33
2017-10-15T10:59:14.376Z,24.30
2017-10-15T11:01:40.795Z,24.57
2017-10-15T11:04:07.207Z,26.87
2017-10-15T11:06:33.576Z,25.20
2017-10-15T11:08:59.995Z,24.20
2017-10-15T11:11:26.375Z,24.93
2017-10-15T11:13:52.758Z,25.23
2017-10-15T11:16:19.955Z,27.70
2017-10-15T11:18:46.459Z,28.20
2017-10-15T11:21:12.904Z,31.27
2017-10-15T11:23:40.121Z,32.70
2017-10-15T11:26:06.540Z,30.90
2017-10-15T11:28:32.929Z,33.00
2017-10-15T11:31:00.116Z,28.63
2017-10-15T11:33:26.603Z,28.97
2017-10-15T11:35:52.959Z,27.27
2017-10-15T11:38:19.384Z,27.03
2017-10-15T11:40:47.120Z,25.77
2017-10-15T11:43:13.635Z,24.80
2017-10-15T11:45:40.836Z,28.47
2017-10-15T11:48:07.335Z,25.83
2017-10-15T11:50:33.874Z,23.83
2017-10-15T11:53:00.335Z,26.30
2017-10-15T11:55:27.780Z,27.50
2017-10-15T11:57:54.273Z,26.07
2017-10-15T12:00:20.715Z,25.30
2017-10-15T12:02:47.877Z,26.20
2017-10-15T12:05:14.430Z,25.03
2017-10-15T12:07:42.725Z,26.30
2017-10-15T12:10:09.131Z,26.00
2017-10-15T12:12:35.724Z,24.37
2017-10-15T12:15:02.264Z,27.62
2017-10-15T12:17:28.919Z,26.40
2017-10-15T12:19:55.340Z,26.63
2017-10-15T12:22:22.792Z,26.50
2017-10-15T12:24:49.372Z,28.03
2017-10-15T12:27:16.042Z,29.80
2017-10-15T12:29:42.642Z,23.87
2017-10-15T12:32:09.147Z,24.30
2017-10-15T12:34:35.744Z,25.07
2017-10-15T12:37:02.477Z,26.27
2017-10-15T12:39:29.277Z,25.97
2017-10-15T12:41:55.874Z,25.87
2017-10-15T12:44:23.098Z,27.80
2017-10-15T12:46:49.498Z,27.27
2017-10-15T12:49:16.198Z,25.50
2017-10-15T12:51:43.867Z,25.27
2017-10-15T12:54:10.643Z,28.63
2017-10-15T12:56:37.497Z,25.93
2017-10-15T12:59:04.579Z,24.20
2017-10-15T13:01:31.551Z,27.60
2017-10-15T13:03:58.268Z,25.40
2017-10-15T13:06:25.268Z,25.23
2017-10-15T13:08:52.159Z,25.10
2017-10-15T13:11:19.358Z,26.10
2017-10-15T13:13:46.765Z,28.00
2017-10-15T13:16:13.503Z,27.00
2017-10-15T13:18:40.276Z,26.53
2017-10-15T13:21:07.071Z,24.60
2017-10-15T13:23:34.260Z,27.80
2017-10-15T13:26:01.759Z,27.40
2017-10-15T13:28:28.918Z,26.00
2017-10-15T13:30:55.654Z,30.13
2017-10-15T13:33:22.247Z,25.50
2017-10-15T13:35:48.840Z,25.10
2017-10-15T13:38:15.463Z,28.30
2017-10-15T13:40:42.026Z,28.40
2017-10-15T13:43:08.555Z,29.30
2017-10-15T13:45:36.204Z,31.20
2017-10-15T13:48:02.738Z,28.50
2017-10-15T13:50:29.280Z,29.47
2017-10-15T13:52:56.109Z,31.17
2017-10-15T13:55:22.622Z,29.70
2017-10-15T13:57:49.081Z,28.27
2017-10-15T14:00:15.655Z,29.73
2017-10-15T14:02:42.553Z,28.90
2017-10-15T14:05:09.328Z,29.80
2017-10-15T14:07:35.843Z,32.03
2017-10-15T14:10:02.827Z,30.43
2017-10-15T14:12:30.776Z,28.77
2017-10-15T14:14:57.703Z,30.57
2017-10-15T14:17:24.605Z,33.30
2017-10-15T14:19:52.324Z,31.13
2017-10-15T14:22:19.971Z,28.87
2017-10-15T14:24:47.090Z,29.80
2017-10-15T14:27:14.972Z,30.30
2017-10-15T14:29:42.319Z,34.37
2017-10-15T14:32:09.619Z,32.20
2017-10-15T14:34:36.943Z,35.57
2017-10-15T14:37:04.953Z,35.03
2017-10-15T14:39:32.766Z,33.00
2017-10-15T14:42:00.530Z,31.23
2017-10-15T14:44:27.386Z,35.30
2017-10-15T14:46:54.672Z,34.77
2017-10-15T14:49:21.341Z,33.47
2017-10-15T14:51:48.595Z,32.40
2017-10-15T14:54:15.449Z,32.10
2017-10-15T14:56:42.341Z,33.13
2017-10-15T14:59:09.202Z,31.73
2017-10-15T15:01:36.195Z,32.20
2017-10-15T15:04:03.798Z,30.37
2017-10-15T15:06:30.580Z,31.27
2017-10-15T15:08:57.349Z,31.20
2017-10-15T15:11:24.707Z,30.87
2017-10-15T15:13:51.469Z,31.07
2017-10-15T15:16:18.475Z,29.87
2017-10-15T15:18:45.045Z,32.43
2017-10-15T15:21:12.236Z,29.83
2017-10-15T15:23:38.636Z,32.00
2017-10-15T15:26:05.351Z,29.97
2017-10-15T15:28:32.265Z,28.90
2017-10-15T15:30:59.029Z,29.87
2017-10-15T15:33:26.390Z,29.30
2017-10-15T15:35:54.352Z,28.57
2017-10-15T15:38:21.089Z,29.30
2017-10-15T15:40:47.962Z,29.90
2017-10-15T15:43:14.745Z,27.87
2017-10-15T15:45:41.498Z,31.20
2017-10-15T15:48:08.685Z,30.13
2017-10-15T15:50:36.652Z,28.50
2017-10-15T15:53:03.862Z,28.73
2017-10-15T15:55:31.227Z,28.23
2017-10-15T15:57:59.508Z,27.80
2017-10-15T16:00:27.882Z,29.00
2017-10-15T16:02:55.246Z,30.70
2017-10-15T16:05:22.735Z,31.77
2017-10-15T16:07:50.260Z,28.07
2017-10-15T16:10:17.923Z,28.97
2017-10-15T16:12:45.904Z,30.77
2017-10-15T16:15:13.462Z,32.03
2017-10-15T16:17:40.993Z,30.87
2017-10-15T16:20:09.694Z,28.47
2017-10-15T16:22:37.155Z,28.70
2017-10-15T16:25:04.780Z,27.90
2017-10-15T16:27:32.069Z,30.10
2017-10-15T16:30:00.320Z,29.03
2017-10-15T16:32:28.478Z,30.10
2017-10-15T16:34:55.977Z,32.67
2017-10-15T16:37:23.773Z,29.80
2017-10-15T16:39:51.896Z,32.50
2017-10-15T16:42:19.715Z,29.27
2017-10-15T16:44:47.472Z,29.87
2017-10-15T16:47:15.258Z,28.97
2017-10-15T16:49:43.925Z,30.47
2017-10-15T16:52:11.819Z,28.60
2017-10-15T16:54:40.088Z,28.43
2017-10-15T16:57:07.937Z,28.60
2017-10-15T16:59:35.880Z,30.10
2017-10-15T17:02:03.877Z,28.67
2017-10-15T17:04:31.782Z,29.53
2017-10-15T17:06:59.680Z,29.97
2017-10-15T17:09:27.871Z,27.50
2017-10-15T17:11:55.883Z,30.17
2017-10-15T17:14:24.633Z,28.30
2017-10-15T17:16:53.422Z,28.80
2017-10-15T17:19:22.074Z,32.27
2017-10-15T17:21:50.147Z,29.30
2017-10-15T17:24:18.149Z,28.80
2017-10-15T17:26:46.230Z,25.63
2017-10-15T17:29:14.216Z,27.63
2017-10-15T17:31:42.957Z,27.60
2017-10-15T17:34:11.037Z,27.37
2017-10-15T17:36:39.758Z,26.50
2017-10-15T17:39:08.902Z,28.60
2017-10-15T17:41:36.789Z,26.83
2017-10-15T17:44:05.119Z,27.53
2017-10-15T17:46:33.271Z,27.30
2017-10-15T17:49:01.161Z,26.40
2017-10-15T17:51:29.074Z,26.27
2017-10-15T17:53:57.911Z,27.73
2017-10-15T17:56:26.006Z,28.53
2017-10-15T17:58:55.882Z,27.90
2017-10-15T18:01:24.626Z,27.43
2017-10-15T18:03:52.539Z,28.90
2017-10-15T18:06:20.569Z,26.50
2017-10-15T18:08:48.639Z,27.07
2017-10-15T18:11:16.605Z,26.63
2017-10-15T18:13:44.605Z,27.60
2017-10-15T18:16:13.322Z,26.90
2017-10-15T18:18:41.432Z,25.93
2017-10-15T18:21:09.345Z,26.47
2017-10-15T18:23:37.291Z,26.93
2017-10-15T18:26:05.517Z,24.27
2017-10-15T18:28:34.283Z,25.80
2017-10-15T18:31:03.034Z,22.53
2017-10-15T18:33:31.089Z,24.23
2017-10-15T18:35:58.954Z,23.43
2017-10-15T18:38:27.690Z,22.17
2017-10-15T18:40:55.709Z,22.60
2017-10-15T18:43:23.767Z,22.90
2017-10-15T18:45:51.838Z,22.63
2017-10-15T18:48:19.978Z,21.70
2017-10-15T18:50:47.985Z,21.70
2017-10-15T18:53:17.283Z,23.87
2017-10-15T18:55:46.073Z,21.37
2017-10-15T18:58:14.138Z,22.97
2017-10-15T19:00:42.071Z,23.23
2017-10-15T19:03:10.923Z,22.77
2017-10-15T19:05:38.857Z,25.57
2017-10-15T19:08:06.857Z,23.70
2017-10-15T19:10:34.954Z,23.40
2017-10-15T19:13:02.983Z,23.60
2017-10-15T19:15:31.249Z,26.47
2017-10-15T19:17:59.442Z,23.20
2017-10-15T19:20:27.552Z,23.90
2017-10-15T19:22:55.589Z,24.03
2017-10-15T19:25:23.488Z,22.63
2017-10-15T19:27:52.429Z,22.60
2017-10-15T19:30:22.147Z,21.23
2017-10-15T19:32:50.212Z,20.67
2017-10-15T19:35:18.262Z,24.43
2017-10-15T19:37:46.337Z,21.17
2017-10-15T19:40:14.561Z,21.90
2017-10-15T19:42:42.559Z,22.10
2017-10-15T19:45:10.690Z,21.63
2017-10-15T19:47:38.552Z,21.80
2017-10-15T19:50:06.667Z,20.40
2017-10-15T19:52:34.682Z,20.97
2017-10-15T19:55:02.668Z,22.63
2017-10-15T19:57:30.605Z,20.47
2017-10-15T19:59:59.494Z,22.17
2017-10-15T20:02:27.397Z,21.73
2017-10-15T20:04:55.298Z,21.23
2017-10-15T20:07:23.799Z,20.40
2017-10-15T20:09:52.269Z,22.50
2017-10-15T20:12:20.342Z,21.13
2017-10-15T20:14:48.390Z,21.73
2017-10-15T20:17:16.278Z,24.90
2017-10-15T20:19:45.029Z,21.63
2017-10-15T20:22:13.062Z,21.60
2017-10-15T20:24:41.091Z,22.67
2017-10-15T20:27:09.123Z,22.80
2017-10-15T20:29:37.163Z,22.90
2017-10-15T20:32:05.182Z,21.77
2017-10-15T20:34:33.107Z,22.50
2017-10-15T20:37:01.213Z,20.53
2017-10-15T20:39:29.410Z,20.40
2017-10-15T20:41:57.495Z,20.97
2017-10-15T20:44:26.509Z,20.43
2017-10-15T20:46:55.624Z,22.17
2017-10-15T20:49:23.657Z,19.60
2017-10-15T20:51:52.401Z,20.98
2017-10-15T20:54:21.188Z,21.42
2017-10-15T20:56:49.879Z,21.35
2017-10-15T20:59:19.076Z,19.87
2017-10-15T21:01:47.090Z,19.80
2017-10-15T21:04:15.854Z,19.45
2017-10-15T21:06:43.810Z,19.97
2017-10-15T21:09:12.556Z,19.87
2017-10-15T21:11:40.535Z,18.85
2017-10-15T21:14:09.180Z,19.70
2017-10-15T21:16:37.929Z,18.67
2017-10-15T21:19:06.800Z,18.10
2017-10-15T21:21:35.986Z,17.40
2017-10-15T21:24:04.023Z,19.53
2017-10-15T21:26:31.767Z,18.70
2017-10-15T21:28:59.709Z,17.35
2017-10-15T21:31:27.676Z,18.87
2017-10-15T21:33:56.246Z,17.62
2017-10-15T21:36:24.080Z,16.08
2017-10-15T21:38:53.395Z,19.87
2017-10-15T21:41:22.960Z,17.43
2017-10-15T21:43:50.991Z,18.23
2017-10-15T21:46:17.746Z,16.83
2017-10-15T21:48:45.039Z,16.08
2017-10-15T21:51:11.560Z,17.92
2017-10-15T21:53:38.131Z,17.45
2017-10-15T21:56:04.822Z,16.80
2017-10-15T21:58:31.287Z,17.25
2017-10-15T22:00:57.731Z,16.37
2017-10-15T22:03:24.179Z,17.13
2017-10-15T22:05:50.603Z,16.80
2017-10-15T22:08:18.028Z,16.80
2017-10-15T22:10:44.408Z,16.62
2017-10-15T22:13:11.891Z,17.60
2017-10-15T22:15:38.276Z,18.50
2017-10-15T22:18:04.663Z,16.70
2017-10-15T22:20:37.945Z,17.02
2017-10-15T22:23:05.095Z,17.73
2017-10-15T22:25:32.587Z,17.15
2017-10-15T22:28:00.048Z,17.40
2017-10-15T22:30:26.435Z,17.00
2017-10-15T22:32:52.828Z,18.77
2017-10-15T22:35:20.063Z,17.60
2017-10-15T22:37:46.455Z,17.95
2017-10-15T22:40:12.885Z,18.12
2017-10-15T22:42:39.269Z,20.10
2017-10-15T22:45:05.732Z,20.35
2017-10-15T22:47:32.143Z,21.02
2017-10-15T22:49:58.575Z,19.77
2017-10-15T22:52:25.721Z,22.85
2017-10-15T22:54:52.172Z,21.02
2017-10-15T22:57:18.555Z,21.62
2017-10-15T22:59:44.927Z,20.95
2017-10-15T23:02:11.316Z,19.80
2017-10-15T23:04:37.688Z,20.73
2017-10-15T23:07:05.147Z,20.97
2017-10-15T23:09:31.556Z,21.37
2017-10-15T23:11:58.659Z,23.45
2017-10-15T23:14:26.534Z,23.35
2017-10-15T23:16:52.980Z,20.23
2017-10-15T23:19:19.371Z,18.50
2017-10-15T23:21:45.795Z,20.30
2017-10-15T23:24:12.179Z,18.62
2017-10-15T23:26:38.555Z,17.90
2017-10-15T23:29:04.907Z,17.37
2017-10-15T23:31:31.282Z,19.17
2017-10-15T23:33:57.739Z,19.70
2017-10-15T23:36:24.158Z,18.77
2017-10-15T23:38:50.603Z,17.33
2017-10-15T23:41:17.740Z,16.73
2017-10-15T23:43:44.851Z,17.60
2017-10-15T23:46:12.038Z,16.95
2017-10-15T23:48:38.429Z,14.98
2017-10-15T23:51:04.827Z,15.80
2017-10-15T23:53:31.236Z,16.50
2017-10-15T23:55:57.628Z,16.25
2017-10-15T23:58:24.048Z,16.52
